Time;durP1;ratioP1;P1;durP2;ratioP2;P2;SDS_P1;SDS_P2;PMS_P1;PMS_P2;Temp;Humidity;BMP_temperature;BMP_pressure;BME280_temperature;BME280_humidity;BME280_pressure;Samples;Min_cycle;Max_cycle;Signal;HPM_P1;HPM_P2
2021/12/16 00:09:30;;;;;;;16.63;12.53;;;5.70;99.90;;;;;;5048928;28;20529;-65
2021/12/16 00:31:20;;;;;;;19.50;13.67;;;5.70;99.90;;;;;;5049089;28;20432;-66
2021/12/16 00:33:59;;;;;;;20.97;14.97;;;5.70;99.90;;;;;;5049005;28;20483;-64
2021/12/16 00:36:29;;;;;;;23.80;15.47;;;5.70;99.90;;;;;;5048349;28;20467;-65
2021/12/16 00:38:56;;;;;;;21.70;14.00;;;5.70;99.90;;;;;;5048664;28;20463;-65
2021/12/16 00:41:23;;;;;;;19.63;13.97;;;5.60;99.90;;;;;;5048834;28;20480;-65
2021/12/16 00:43:54;;;;;;;16.83;12.20;;;5.60;99.90;;;;;;5048695;28;20540;-65
2021/12/16 00:46:43;;;;;;;19.87;13.33;;;5.60;99.90;;;;;;5048429;28;20458;-65
2021/12/16 00:49:32;;;;;;;22.43;14.33;;;5.50;99.90;;;;;;5048193;28;20994;-66
2021/12/16 00:54:51;;;;;;;18.70;13.97;;;5.50;99.90;;;;;;5048160;28;20788;-64
2021/12/16 00:57:18;;;;;;;22.77;15.67;;;5.50;99.90;;;;;;5047890;28;20452;-65
2021/12/16 00:59:49;;;;;;;24.03;15.17;;;5.50;99.90;;;;;;5047992;28;20527;-65
2021/12/16 01:02:32;;;;;;;21.93;14.70;;;5.50;99.90;;;;;;5048253;28;20460;-64
2021/12/16 01:05:19;;;;;;;21.93;14.70;;;5.40;99.90;;;;;;5048205;28;20929;-66
2021/12/16 01:35:31;;;;;;;23.30;15.57;;;5.40;99.90;;;;;;5047454;28;20431;-65
2021/12/16 01:49:16;;;;;;;26.80;17.60;;;5.40;99.90;;;;;;5017422;28;20445;-64
2021/12/16 01:51:59;;;;;;;22.83;17.57;;;5.40;99.90;;;;;;5053966;28;20981;-65
2021/12/16 01:54:43;;;;;;;24.87;17.93;;;5.40;99.90;;;;;;5053889;28;20513;-64
2021/12/16 01:57:17;;;;;;;22.83;16.70;;;5.40;99.90;;;;;;5053693;28;20454;-65
2021/12/16 01:59:50;;;;;;;25.33;16.73;;;5.40;99.90;;;;;;5053790;28;20543;-65
2021/12/16 02:02:33;;;;;;;24.47;18.63;;;5.40;99.90;;;;;;5054039;28;20460;-65
2021/12/16 02:05:20;;;;;;;22.17;15.63;;;5.40;99.90;;;;;;5053657;28;20491;-64
2021/12/16 02:08:11;;;;;;;24.30;17.97;;;5.40;99.90;;;;;;5053728;28;20563;-64
2021/12/16 02:10:45;;;;;;;18.87;13.83;;;5.40;99.90;;;;;;5053701;28;21119;-63
2021/12/16 02:13:41;;;;;;;24.40;16.13;;;5.40;99.90;;;;;;5054148;28;20483;-65
2021/12/16 02:27:34;;;;;;;24.03;17.80;;;5.40;99.90;;;;;;5053313;28;20442;-65
2021/12/16 02:30:49;;;;;;;19.77;14.30;;;5.40;99.90;;;;;;5053866;28;20514;-63
2021/12/16 02:33:16;;;;;;;23.60;16.37;;;5.40;99.90;;;;;;5053600;28;20516;-64
2021/12/16 02:35:46;;;;;;;22.23;16.43;;;5.50;99.90;;;;;;5053839;28;20443;-64
2021/12/16 02:38:17;;;;;;;22.70;16.43;;;5.50;99.90;;;;;;5053775;28;20526;-64
2021/12/16 02:40:47;;;;;;;22.83;16.07;;;5.50;99.90;;;;;;5053717;28;20994;-65
2021/12/16 02:43:49;;;;;;;24.00;16.73;;;5.50;99.90;;;;;;5053420;28;21294;-66
2021/12/16 02:48:55;;;;;;;19.30;14.77;;;5.40;99.90;;;;;;5052182;28;20567;-65
2021/12/16 02:51:25;;;;;;;18.67;14.50;;;5.50;99.90;;;;;;5050325;28;20504;-64
2021/12/16 02:53:55;;;;;;;23.30;16.17;;;5.50;99.90;;;;;;5050068;28;20484;-64
2021/12/16 02:56:22;;;;;;;21.83;15.50;;;5.50;99.90;;;;;;5050055;28;20822;-64
2021/12/16 02:58:52;;;;;;;20.30;13.70;;;5.50;99.90;;;;;;5050648;28;20462;-63
2021/12/16 03:01:26;;;;;;;22.20;15.40;;;5.50;99.90;;;;;;5050808;28;20472;-65
2021/12/16 03:03:53;;;;;;;22.90;15.03;;;5.50;99.90;;;;;;5050967;28;20551;-64
2021/12/16 03:06:21;;;;;;;18.33;14.13;;;5.50;99.90;;;;;;5050661;28;20440;-65
2021/12/16 03:08:48;;;;;;;20.43;13.30;;;5.50;99.90;;;;;;5051130;28;20440;-65
2021/12/16 03:11:23;;;;;;;20.17;15.13;;;5.60;99.90;;;;;;5051106;28;20468;-65
2021/12/16 03:14:06;;;;;;;19.30;14.40;;;5.60;99.90;;;;;;5051306;28;21080;-65
2021/12/16 03:16:43;;;;;;;18.90;13.60;;;5.60;99.90;;;;;;5050916;28;20440;-65
2021/12/16 03:19:17;;;;;;;19.10;14.33;;;5.60;99.90;;;;;;5049923;28;20464;-65
2021/12/16 03:21:48;;;;;;;20.13;14.40;;;5.70;99.90;;;;;;5050066;28;20475;-65
2021/12/16 03:24:42;;;;;;;19.37;12.70;;;5.70;99.90;;;;;;5050115;28;20499;-65
2021/12/16 03:30:24;;;;;;;19.53;14.17;;;5.60;99.90;;;;;;5049887;28;20428;-65
2021/12/16 03:36:04;;;;;;;19.30;14.20;;;5.60;99.90;;;;;;4987847;28;20577;-64
2021/12/16 03:38:31;;;;;;;19.17;14.80;;;5.60;99.90;;;;;;5041444;28;20562;-65
2021/12/16 03:40:59;;;;;;;22.40;14.23;;;5.60;99.90;;;;;;5049821;28;20963;-64
2021/12/16 03:43:28;;;;;;;22.43;16.20;;;5.60;99.90;;;;;;5050082;28;20432;-64
2021/12/16 03:48:47;;;;;;;20.33;14.53;;;5.70;99.90;;;;;;5049700;28;20420;-65
2021/12/16 03:51:17;;;;;;;21.67;15.30;;;5.70;99.90;;;;;;5049370;28;20475;-64
2021/12/16 03:53:45;;;;;;;22.53;16.30;;;5.70;99.90;;;;;;5049476;28;20481;-65
2021/12/16 03:56:13;;;;;;;21.90;16.10;;;5.70;99.90;;;;;;5049585;28;20490;-65
2021/12/16 03:58:42;;;;;;;22.43;14.73;;;5.60;99.90;;;;;;5049190;28;20457;-64
2021/12/16 04:01:11;;;;;;;23.90;17.23;;;5.70;99.90;;;;;;5049444;28;20478;-64
2021/12/16 04:03:39;;;;;;;26.33;17.03;;;5.70;99.90;;;;;;5049109;28;21275;-65
2021/12/16 04:06:06;;;;;;;27.10;17.00;;;5.60;99.90;;;;;;5049279;28;20444;-64
2021/12/16 04:08:33;;;;;;;24.10;16.37;;;5.70;99.90;;;;;;5048709;28;20484;-63
2021/12/16 04:11:05;;;;;;;23.33;16.90;;;5.60;99.90;;;;;;5049173;28;20458;-64
2021/12/16 04:13:36;;;;;;;27.87;18.97;;;5.70;99.90;;;;;;5049033;28;20542;-65
2021/12/16 04:16:04;;;;;;;25.30;18.57;;;5.60;99.90;;;;;;5049144;28;20542;-65
2021/12/16 04:18:31;;;;;;;25.10;16.93;;;5.60;99.90;;;;;;5048522;28;20868;-64
2021/12/16 04:20:58;;;;;;;24.60;16.57;;;5.60;99.90;;;;;;5048886;28;20461;-65
2021/12/16 04:23:25;;;;;;;25.10;17.00;;;5.60;99.90;;;;;;5048693;28;20958;-65
2021/12/16 04:25:53;;;;;;;25.00;17.03;;;5.60;99.90;;;;;;5048719;28;20460;-65
2021/12/16 04:28:24;;;;;;;28.80;19.40;;;5.60;99.90;;;;;;5048707;28;20474;-65
2021/12/16 04:30:52;;;;;;;26.50;16.70;;;5.60;99.90;;;;;;5048651;28;20467;-66
2021/12/16 04:33:21;;;;;;;25.37;17.37;;;5.60;99.90;;;;;;5048490;28;20480;-65
2021/12/16 04:35:48;;;;;;;24.73;16.50;;;5.60;99.90;;;;;;5048050;28;20506;-64
2021/12/16 04:38:16;;;;;;;27.10;18.93;;;5.60;99.90;;;;;;5048320;28;20456;-65
2021/12/16 04:40:45;;;;;;;25.60;19.20;;;5.50;99.90;;;;;;5048090;28;20445;-63
2021/12/16 04:43:19;;;;;;;23.77;17.00;;;5.60;99.90;;;;;;5048547;28;20480;-65
2021/12/16 04:45:46;;;;;;;26.63;17.77;;;5.60;99.90;;;;;;5048112;28;20448;-65
2021/12/16 04:48:13;;;;;;;25.53;18.00;;;5.50;99.90;;;;;;5047942;28;20452;-65
2021/12/16 04:50:41;;;;;;;28.83;19.27;;;5.60;99.90;;;;;;5047829;28;20444;-65
2021/12/16 04:53:09;;;;;;;27.77;19.70;;;5.60;99.90;;;;;;5048080;28;20484;-65
2021/12/16 04:55:36;;;;;;;32.23;19.67;;;5.50;99.90;;;;;;5048221;28;20445;-65
2021/12/16 04:58:03;;;;;;;31.67;20.90;;;5.60;99.90;;;;;;5047611;28;20452;-65
2021/12/16 05:00:30;;;;;;;27.37;18.10;;;5.60;99.90;;;;;;5047914;28;20448;-65
2021/12/16 05:02:57;;;;;;;30.33;20.30;;;5.50;99.90;;;;;;5047646;28;20472;-65
2021/12/16 05:05:24;;;;;;;24.13;16.27;;;5.50;99.90;;;;;;5047607;28;20452;-65
2021/12/16 05:07:53;;;;;;;28.57;18.60;;;5.50;99.90;;;;;;5047435;28;20462;-64
2021/12/16 05:10:20;;;;;;;28.57;18.43;;;5.60;99.90;;;;;;5048112;28;20450;-65
2021/12/16 05:12:50;;;;;;;28.77;18.13;;;5.60;99.90;;;;;;5046986;28;20523;-65
2021/12/16 05:15:20;;;;;;;26.53;17.27;;;5.60;99.90;;;;;;5047497;28;20532;-65
2021/12/16 05:17:51;;;;;;;24.67;16.80;;;5.60;99.90;;;;;;5047119;28;20449;-65
2021/12/16 05:20:21;;;;;;;25.13;18.33;;;5.60;99.90;;;;;;5047887;28;20452;-65
2021/12/16 05:25:48;;;;;;;26.30;17.03;;;5.60;99.90;;;;;;5047777;28;20428;-65
2021/12/16 05:28:17;;;;;;;24.40;17.53;;;5.50;99.90;;;;;;5047143;28;20475;-65
2021/12/16 05:30:44;;;;;;;25.07;16.90;;;5.60;99.90;;;;;;5047718;28;20449;-63
2021/12/16 05:33:12;;;;;;;22.73;16.20;;;5.60;99.90;;;;;;5047515;28;20479;-64
2021/12/16 05:35:39;;;;;;;26.60;17.67;;;5.50;99.90;;;;;;5047401;28;20448;-64
2021/12/16 05:38:06;;;;;;;25.70;18.80;;;5.50;99.90;;;;;;5047285;28;20451;-64
2021/12/16 05:40:34;;;;;;;21.60;15.23;;;5.50;99.90;;;;;;5047607;28;20446;-64
2021/12/16 05:43:06;;;;;;;25.60;17.70;;;5.50;99.90;;;;;;5047350;28;20464;-64
2021/12/16 05:45:33;;;;;;;22.73;15.80;;;5.50;99.90;;;;;;5047490;28;20459;-66
2021/12/16 05:48:05;;;;;;;24.60;15.93;;;5.60;99.90;;;;;;5047014;28;20448;-65
2021/12/16 05:50:34;;;;;;;26.90;15.30;;;5.60;99.90;;;;;;5047108;28;20451;-64
2021/12/16 05:53:01;;;;;;;22.63;15.97;;;5.60;99.90;;;;;;5047614;28;20470;-64
2021/12/16 05:55:28;;;;;;;19.83;14.10;;;5.60;99.90;;;;;;5047608;28;20440;-63
2021/12/16 05:57:56;;;;;;;24.37;15.33;;;5.60;99.90;;;;;;5047798;28;20441;-63
2021/12/16 06:00:29;;;;;;;22.60;14.30;;;5.60;99.90;;;;;;5057069;28;20933;-64
2021/12/16 06:02:56;;;;;;;21.03;14.70;;;5.60;99.90;;;;;;5060980;28;20467;-64
2021/12/16 06:05:23;;;;;;;23.53;14.83;;;5.60;99.90;;;;;;5066508;28;20448;-64
2021/12/16 06:07:51;;;;;;;19.77;14.17;;;5.60;99.90;;;;;;5065711;28;20436;-65
2021/12/16 06:10:49;;;;;;;26.80;16.97;;;5.60;99.90;;;;;;5062357;28;20436;-64
2021/12/16 06:13:10;;;;;;;21.67;14.23;;;5.60;99.90;;;;;;5064423;28;20424;-65
2021/12/16 06:15:56;;;;;;;22.37;15.13;;;5.70;99.90;;;;;;5065942;28;20444;-64
2021/12/16 06:26:47;;;;;;;23.47;15.00;;;5.60;99.90;;;;;;5069531;28;20430;-65
2021/12/16 06:29:14;;;;;;;20.33;14.23;;;5.60;99.90;;;;;;5070217;28;20482;-64
2021/12/16 06:31:42;;;;;;;21.73;13.80;;;5.60;99.90;;;;;;5071007;28;20471;-63
2021/12/16 06:34:09;;;;;;;21.17;14.50;;;5.60;99.90;;;;;;5070840;28;20485;-63
2021/12/16 06:36:36;;;;;;;21.60;13.30;;;5.60;99.90;;;;;;5070518;28;20447;-63
2021/12/16 06:39:03;;;;;;;21.53;14.40;;;5.60;99.90;;;;;;5070677;28;20453;-63
2021/12/16 06:41:34;;;;;;;21.67;13.70;;;5.60;99.90;;;;;;5070499;28;20467;-63
2021/12/16 06:44:05;;;;;;;19.53;13.43;;;5.70;99.90;;;;;;5070556;28;20447;-70
2021/12/16 06:46:36;;;;;;;18.03;13.67;;;5.60;99.90;;;;;;5070253;28;20454;-64
2021/12/16 06:49:05;;;;;;;21.03;13.50;;;5.70;99.90;;;;;;5070461;28;20525;-64
2021/12/16 06:51:42;;;;;;;19.87;14.17;;;5.60;99.90;;;;;;5070323;28;20470;-65
2021/12/16 06:54:13;;;;;;;18.10;13.30;;;5.60;99.90;;;;;;5070526;28;20486;-64
2021/12/16 06:56:48;;;;;;;19.33;13.30;;;5.70;99.90;;;;;;5070280;28;20462;-65
2021/12/16 06:59:23;;;;;;;20.03;13.53;;;5.70;99.90;;;;;;5070329;28;20487;-64
2021/12/16 07:02:03;;;;;;;23.70;14.63;;;5.60;99.90;;;;;;5070196;28;20930;-65
2021/12/16 07:04:32;;;;;;;21.10;13.10;;;5.70;99.90;;;;;;5070456;28;20478;-65
2021/12/16 07:06:59;;;;;;;22.63;14.50;;;5.70;99.90;;;;;;5070045;28;20443;-65
2021/12/16 07:09:26;;;;;;;20.97;13.83;;;5.70;99.90;;;;;;5070205;28;20450;-65
2021/12/16 07:11:57;;;;;;;19.10;13.40;;;5.70;99.90;;;;;;5069939;28;20989;-64
2021/12/16 07:14:35;;;;;;;21.07;14.43;;;5.70;99.90;;;;;;5069852;28;20475;-64
2021/12/16 07:17:05;;;;;;;20.77;14.17;;;5.70;99.90;;;;;;5070087;28;20455;-65
2021/12/16 07:19:33;;;;;;;18.13;12.63;;;5.70;99.90;;;;;;5070170;28;20454;-65
2021/12/16 07:22:00;;;;;;;19.80;13.20;;;5.80;99.90;;;;;;5069751;28;20471;-63
2021/12/16 07:24:27;;;;;;;23.43;14.57;;;5.80;99.90;;;;;;5069971;28;21094;-63
2021/12/16 07:26:55;;;;;;;18.60;12.97;;;5.80;99.90;;;;;;5069545;28;20573;-64
2021/12/16 07:29:22;;;;;;;23.50;14.20;;;5.80;99.90;;;;;;5069561;28;20527;-64
2021/12/16 07:31:49;;;;;;;21.27;14.37;;;5.80;99.90;;;;;;5069844;28;20463;-65
2021/12/16 07:34:15;;;;;;;18.47;13.13;;;5.90;99.90;;;;;;5069810;28;20483;-65
2021/12/16 07:36:45;;;;;;;20.23;14.37;;;5.80;99.90;;;;;;5068781;28;20444;-64
2021/12/16 07:39:18;;;;;;;18.63;13.83;;;5.80;99.90;;;;;;5069592;28;20525;-65
2021/12/16 07:41:47;;;;;;;19.70;14.10;;;5.90;99.90;;;;;;5069380;28;20471;-65
2021/12/16 07:44:16;;;;;;;19.33;14.03;;;5.90;99.90;;;;;;5069540;28;20443;-64
2021/12/16 07:46:45;;;;;;;21.30;14.70;;;5.90;99.90;;;;;;5069117;28;20451;-65
2021/12/16 07:49:14;;;;;;;19.50;13.77;;;5.90;99.90;;;;;;5069303;28;20452;-65
2021/12/16 07:51:42;;;;;;;23.93;14.00;;;6.00;99.90;;;;;;5069281;28;20464;-64
2021/12/16 07:54:11;;;;;;;20.97;13.80;;;5.90;99.90;;;;;;5069088;28;20486;-65
2021/12/16 07:56:38;;;;;;;20.60;14.40;;;5.90;99.90;;;;;;5068968;28;20447;-64
2021/12/16 07:59:07;;;;;;;20.00;13.97;;;6.00;99.90;;;;;;5068987;28;20451;-65
2021/12/16 08:01:36;;;;;;;19.70;14.70;;;6.00;99.90;;;;;;5069202;28;20973;-64
2021/12/16 08:04:03;;;;;;;22.80;14.87;;;6.00;99.90;;;;;;5069424;28;20538;-65
2021/12/16 08:06:33;;;;;;;22.00;15.00;;;6.00;99.90;;;;;;5068555;28;20872;-64
2021/12/16 08:09:04;;;;;;;20.87;13.50;;;6.00;99.90;;;;;;5069300;28;20451;-65
2021/12/16 08:11:34;;;;;;;25.07;15.63;;;6.00;99.90;;;;;;5068978;28;20467;-65
2021/12/16 08:14:03;;;;;;;19.20;14.33;;;5.90;99.90;;;;;;5068725;28;20444;-65
2021/12/16 08:16:30;;;;;;;20.23;13.97;;;6.00;99.90;;;;;;5068543;28;20451;-65
2021/12/16 08:18:58;;;;;;;21.87;14.50;;;6.10;99.90;;;;;;5068741;28;20443;-63
2021/12/16 08:21:28;;;;;;;23.10;14.67;;;6.10;99.90;;;;;;5068408;28;21007;-63
2021/12/16 08:23:55;;;;;;;17.87;14.30;;;6.20;99.90;;;;;;5068953;28;20451;-65
2021/12/16 08:26:22;;;;;;;21.80;14.77;;;6.20;99.90;;;;;;5068301;28;20979;-66
2021/12/16 08:28:51;;;;;;;21.13;14.60;;;6.30;99.90;;;;;;5068591;28;21158;-65
2021/12/16 08:31:18;;;;;;;19.90;14.40;;;6.40;99.90;;;;;;5068370;28;21012;-65
2021/12/16 08:33:44;;;;;;;20.77;14.90;;;6.40;99.90;;;;;;5068411;28;20479;-65
2021/12/16 08:36:11;;;;;;;20.87;13.47;;;6.40;99.90;;;;;;5068386;28;20490;-64
2021/12/16 08:38:39;;;;;;;20.03;14.10;;;6.50;99.90;;;;;;5068104;28;21008;-65
2021/12/16 08:41:09;;;;;;;19.60;14.10;;;6.50;99.90;;;;;;5068321;28;20856;-66
2021/12/16 08:43:36;;;;;;;19.40;14.50;;;6.40;99.90;;;;;;5069134;28;20530;-64
2021/12/16 08:46:05;;;;;;;20.37;14.60;;;6.50;99.90;;;;;;5068611;28;20451;-65
2021/12/16 08:48:32;;;;;;;19.13;13.43;;;6.50;99.90;;;;;;5067599;28;21249;-65
2021/12/16 08:50:58;;;;;;;18.90;13.77;;;6.50;99.90;;;;;;5068179;28;20452;-68
2021/12/16 08:53:26;;;;;;;19.13;13.33;;;6.70;99.90;;;;;;5068030;28;20447;-65
2021/12/16 08:55:54;;;;;;;20.00;13.83;;;6.70;99.90;;;;;;5068044;28;20574;-66
2021/12/16 08:58:22;;;;;;;15.80;13.10;;;6.80;99.90;;;;;;5067940;28;21005;-66
2021/12/16 09:00:53;;;;;;;20.80;14.23;;;6.90;99.90;;;;;;5066955;28;20443;-65
2021/12/16 09:03:21;;;;;;;15.17;12.40;;;6.90;99.90;;;;;;5068489;28;20454;-66
2021/12/16 09:05:49;;;;;;;21.50;14.97;;;6.90;99.90;;;;;;5068582;28;20892;-66
2021/12/16 09:08:16;;;;;;;19.73;13.43;;;6.90;99.90;;;;;;5068474;28;20856;-65
2021/12/16 09:10:43;;;;;;;19.70;14.80;;;6.90;99.90;;;;;;5068436;28;20457;-65
2021/12/16 09:13:14;;;;;;;19.03;13.87;;;7.00;99.90;;;;;;5068330;28;20814;-66
2021/12/16 09:15:45;;;;;;;14.80;11.50;;;7.10;99.90;;;;;;5068369;28;20488;-65
2021/12/16 09:18:14;;;;;;;18.93;13.80;;;7.10;99.90;;;;;;5068118;28;20459;-66
2021/12/16 09:20:42;;;;;;;18.70;12.90;;;7.20;99.90;;;;;;5068623;28;20454;-70
2021/12/16 09:23:11;;;;;;;17.43;13.13;;;7.20;99.90;;;;;;5068382;28;20491;-66
2021/12/16 09:25:40;;;;;;;19.47;13.73;;;7.40;99.90;;;;;;5067930;28;20535;-65
2021/12/16 09:28:07;;;;;;;17.30;12.03;;;7.30;99.90;;;;;;5068112;28;20531;-66
2021/12/16 09:30:37;;;;;;;18.70;12.43;;;7.40;99.90;;;;;;5067994;28;20933;-65
2021/12/16 09:33:07;;;;;;;18.23;14.63;;;7.50;99.90;;;;;;5067759;28;20471;-64
2021/12/16 09:35:39;;;;;;;15.97;11.60;;;7.50;99.90;;;;;;5067796;28;20495;-64
2021/12/16 09:38:09;;;;;;;16.23;12.30;;;7.50;99.90;;;;;;5067402;28;20447;-63
2021/12/16 09:40:44;;;;;;;18.70;12.63;;;7.50;99.90;;;;;;5067798;28;20867;-65
2021/12/16 09:43:12;;;;;;;16.40;12.60;;;7.60;99.90;;;;;;5067705;28;20457;-65
2021/12/16 09:45:39;;;;;;;16.77;12.23;;;7.60;99.90;;;;;;5067382;28;20453;-65
2021/12/16 09:48:06;;;;;;;17.67;12.90;;;7.60;99.90;;;;;;5067151;28;20451;-65
2021/12/16 09:50:33;;;;;;;17.23;12.67;;;7.70;99.90;;;;;;5067620;28;20452;-64
2021/12/16 09:53:01;;;;;;;11.70;10.40;;;7.70;99.90;;;;;;5067629;28;20472;-65
2021/12/16 09:55:33;;;;;;;18.87;12.70;;;7.60;99.90;;;;;;5067601;28;20564;-65
2021/12/16 09:58:00;;;;;;;18.70;12.80;;;7.60;99.90;;;;;;5067642;28;20451;-65
2021/12/16 10:00:29;;;;;;;18.27;13.10;;;7.50;99.90;;;;;;5071315;28;20455;-66
2021/12/16 10:02:58;;;;;;;16.30;11.50;;;7.50;99.90;;;;;;5071698;28;20468;-64
2021/12/16 10:05:27;;;;;;;15.30;12.30;;;7.50;99.90;;;;;;5071529;28;20526;-65
2021/12/16 10:07:54;;;;;;;18.27;13.73;;;7.50;99.90;;;;;;5071224;28;20449;-65
2021/12/16 10:10:25;;;;;;;13.40;10.43;;;7.60;99.90;;;;;;5071362;28;20448;-65
2021/12/16 10:12:57;;;;;;;16.77;12.43;;;7.70;99.90;;;;;;5071356;28;20473;-65
2021/12/16 10:18:14;;;;;;;16.37;12.00;;;7.70;99.90;;;;;;5071265;28;20418;-66
2021/12/16 10:20:45;;;;;;;14.60;11.77;;;7.60;99.90;;;;;;5071398;28;20855;-66
2021/12/16 10:23:16;;;;;;;18.03;12.20;;;7.70;99.90;;;;;;5071685;28;20485;-66
2021/12/16 10:25:46;;;;;;;19.60;12.90;;;7.80;99.90;;;;;;5071673;28;21025;-65
2021/12/16 10:28:17;;;;;;;19.50;14.47;;;7.80;99.90;;;;;;5071374;28;20979;-64
2021/12/16 10:30:58;;;;;;;16.83;12.57;;;7.90;99.90;;;;;;5071803;28;20456;-65
2021/12/16 10:33:30;;;;;;;19.47;13.53;;;7.90;99.90;;;;;;5071729;28;21108;-65
2021/12/16 10:36:19;;;;;;;17.30;12.50;;;7.90;99.90;;;;;;5071250;28;20475;-65
2021/12/16 10:38:49;;;;;;;22.90;12.67;;;7.90;99.90;;;;;;5070557;28;20447;-65
2021/12/16 10:41:21;;;;;;;16.70;11.60;;;7.80;99.90;;;;;;5070738;28;20579;-65
2021/12/16 10:43:52;;;;;;;16.83;12.73;;;7.90;99.90;;;;;;5070609;28;20480;-65
2021/12/16 10:46:21;;;;;;;17.73;13.83;;;7.90;99.90;;;;;;5070254;28;20447;-65
2021/12/16 10:48:50;;;;;;;16.33;12.40;;;7.90;99.90;;;;;;5070350;28;20478;-66
2021/12/16 10:51:22;;;;;;;16.60;12.27;;;7.90;99.90;;;;;;5070447;28;20879;-65
2021/12/16 10:54:06;;;;;;;15.73;11.97;;;7.80;99.90;;;;;;5070547;28;20485;-64
2021/12/16 10:56:37;;;;;;;17.00;12.10;;;7.80;99.90;;;;;;5070125;28;21012;-64
2021/12/16 10:59:09;;;;;;;17.87;12.10;;;7.80;99.90;;;;;;5070303;28;20446;-66
2021/12/16 11:01:44;;;;;;;17.40;12.17;;;7.80;99.90;;;;;;5070513;28;20482;-64
2021/12/16 11:04:15;;;;;;;18.07;12.37;;;7.80;99.90;;;;;;5070390;28;20449;-65
2021/12/16 11:06:44;;;;;;;15.40;11.30;;;7.90;99.90;;;;;;5069944;28;20534;-64
2021/12/16 11:09:27;;;;;;;15.50;11.83;;;7.90;99.90;;;;;;5069964;28;20447;-65
2021/12/16 11:12:10;;;;;;;17.33;11.23;;;7.90;99.90;;;;;;5069267;28;20468;-64
2021/12/16 11:14:41;;;;;;;17.23;13.10;;;8.00;99.90;;;;;;5070104;28;20470;-64
2021/12/16 11:17:10;;;;;;;18.13;11.90;;;8.10;99.90;;;;;;5069783;28;20454;-64
2021/12/16 11:19:43;;;;;;;15.23;11.17;;;8.00;99.90;;;;;;5069894;28;20892;-64
2021/12/16 11:22:11;;;;;;;16.23;12.97;;;8.10;99.90;;;;;;5069728;28;20514;-65
2021/12/16 11:24:38;;;;;;;15.93;12.10;;;8.20;99.90;;;;;;5069759;28;20439;-64
2021/12/16 11:27:25;;;;;;;14.80;11.63;;;8.30;99.90;;;;;;5069913;28;20446;-66
2021/12/16 11:29:54;;;;;;;16.40;12.17;;;8.40;99.90;;;;;;5069841;28;20436;-65
2021/12/16 11:32:40;;;;;;;16.43;12.30;;;8.50;99.90;;;;;;5069599;28;20468;-65
2021/12/16 11:35:29;;;;;;;16.47;11.80;;;8.40;99.90;;;;;;5069973;28;20505;-65
2021/12/16 11:37:58;;;;;;;18.77;11.97;;;8.40;99.90;;;;;;5069449;28;20447;-64
2021/12/16 11:40:27;;;;;;;15.73;12.23;;;8.60;99.90;;;;;;5070138;28;20456;-64
2021/12/16 11:43:03;;;;;;;15.50;12.03;;;8.60;99.90;;;;;;5069643;28;20471;-65
2021/12/16 11:45:33;;;;;;;15.20;10.87;;;8.70;99.90;;;;;;5069768;28;20791;-66
2021/12/16 11:48:00;;;;;;;17.00;13.13;;;8.70;99.90;;;;;;5069696;28;20466;-64
2021/12/16 11:50:35;;;;;;;18.83;12.97;;;8.80;99.90;;;;;;5069425;28;20454;-65
2021/12/16 11:53:02;;;;;;;18.87;11.87;;;8.90;99.90;;;;;;5070193;28;20475;-66
2021/12/16 11:55:29;;;;;;;17.97;10.97;;;9.00;99.90;;;;;;5069664;28;20474;-65
2021/12/16 11:58:01;;;;;;;13.87;11.20;;;9.10;99.90;;;;;;5069052;28;20447;-65
2021/12/16 12:00:31;;;;;;;24.03;13.57;;;9.10;99.90;;;;;;5069211;28;20452;-65
2021/12/16 12:03:02;;;;;;;16.57;12.33;;;9.10;99.90;;;;;;5069100;28;20474;-65
2021/12/16 12:05:31;;;;;;;18.30;12.97;;;9.20;99.90;;;;;;5069169;28;20450;-65
2021/12/16 12:08:00;;;;;;;17.40;12.87;;;9.20;99.90;;;;;;5068571;28;21139;-65
2021/12/16 12:10:41;;;;;;;15.17;12.07;;;9.30;99.90;;;;;;5069045;28;20832;-65
2021/12/16 12:13:12;;;;;;;12.63;11.30;;;9.30;99.90;;;;;;5068814;28;20467;-66
2021/12/16 12:15:54;;;;;;;18.90;13.40;;;9.30;99.90;;;;;;5068720;28;20483;-65
2021/12/16 12:18:33;;;;;;;19.93;11.97;;;9.40;99.90;;;;;;5068618;28;20440;-65
2021/12/16 12:21:20;;;;;;;16.87;11.13;;;9.40;99.90;;;;;;5069003;28;20451;-65
2021/12/16 12:23:50;;;;;;;18.60;13.93;;;9.60;99.90;;;;;;5068611;28;20522;-65
2021/12/16 12:26:19;;;;;;;15.80;11.77;;;9.60;99.90;;;;;;5068265;28;20439;-64
2021/12/16 12:28:47;;;;;;;17.47;13.53;;;9.60;99.90;;;;;;5068315;28;20482;-64
2021/12/16 12:31:16;;;;;;;17.57;13.87;;;9.60;99.90;;;;;;5068610;28;20490;-66
2021/12/16 12:33:44;;;;;;;15.43;12.80;;;9.60;99.90;;;;;;5069295;28;20447;-65
2021/12/16 12:36:12;;;;;;;17.23;12.93;;;9.70;99.90;;;;;;5068689;28;20477;-65
2021/12/16 12:38:39;;;;;;;16.93;12.70;;;9.60;99.90;;;;;;5067835;28;20446;-65
2021/12/16 12:41:07;;;;;;;17.00;14.40;;;9.60;99.90;;;;;;5066530;28;20965;-63
2021/12/16 12:43:37;;;;;;;18.50;13.67;;;9.20;99.90;;;;;;5061946;28;20429;-65
2021/12/16 12:46:06;;;;;;;18.60;15.20;;;9.00;99.90;;;;;;5060108;28;20435;-67
2021/12/16 12:48:35;;;;;;;18.30;14.17;;;8.90;99.90;;;;;;5058599;28;20437;-64
2021/12/16 12:51:05;;;;;;;16.80;13.57;;;8.90;99.90;;;;;;5060893;28;20439;-65
2021/12/16 12:53:34;;;;;;;16.47;12.67;;;9.10;99.90;;;;;;5065799;28;20494;-65
2021/12/16 12:56:11;;;;;;;19.23;14.07;;;9.20;99.90;;;;;;5057882;28;20479;-65
2021/12/16 12:58:51;;;;;;;22.70;13.57;;;9.40;99.90;;;;;;5064895;28;20534;-65
2021/12/16 13:01:34;;;;;;;18.30;13.37;;;9.40;99.90;;;;;;5065277;28;20456;-64
2021/12/16 13:04:08;;;;;;;17.00;12.67;;;9.30;99.90;;;;;;5065531;28;20443;-65
2021/12/16 13:06:57;;;;;;;17.27;13.90;;;9.40;99.90;;;;;;5066275;28;20517;-64
2021/12/16 13:09:28;;;;;;;23.10;14.30;;;9.30;99.90;;;;;;5066857;28;20531;-64
2021/12/16 13:11:55;;;;;;;20.60;14.90;;;9.10;99.90;;;;;;5061547;28;20495;-64
2021/12/16 13:14:28;;;;;;;18.17;13.97;;;9.00;99.90;;;;;;5064098;28;20447;-65
2021/12/16 13:17:17;;;;;;;18.50;14.00;;;8.70;99.90;;;;;;5060632;28;20489;-65
2021/12/16 13:28:40;;;;;;;16.03;12.20;;;8.90;99.90;;;;;;5065339;28;20428;-65
2021/12/16 13:31:31;;;;;;;19.37;13.10;;;9.00;99.90;;;;;;5066203;28;20478;-63
2021/12/16 13:34:00;;;;;;;20.10;14.67;;;9.10;99.90;;;;;;5059851;28;20460;-63
2021/12/16 13:36:43;;;;;;;19.23;14.17;;;9.20;99.90;;;;;;5062463;28;20483;-67
2021/12/16 13:39:15;;;;;;;21.33;15.40;;;9.20;99.90;;;;;;5062071;28;20534;-64
2021/12/16 13:42:02;;;;;;;22.80;16.13;;;9.00;99.90;;;;;;5059123;28;20483;-64
2021/12/16 13:44:45;;;;;;;17.00;13.70;;;9.00;99.90;;;;;;5057979;28;20541;-64
2021/12/16 13:47:26;;;;;;;19.47;14.70;;;9.00;99.90;;;;;;5054113;28;20449;-64
2021/12/16 14:01:57;;;;;;;19.20;13.50;;;8.70;99.90;;;;;;5054944;28;20470;-61
2021/12/16 14:04:41;;;;;;;16.33;12.50;;;8.70;99.90;;;;;;5063911;28;20447;-65
2021/12/16 14:07:39;;;;;;;17.10;14.10;;;8.80;99.90;;;;;;5060634;28;20532;-64
2021/12/16 14:10:14;;;;;;;21.47;14.53;;;8.90;99.90;;;;;;5061173;28;20447;-65
2021/12/16 14:16:28;;;;;;;15.30;12.43;;;8.90;99.90;;;;;;5053136;28;21101;-63
2021/12/16 14:24:59;;;;;;;18.27;13.37;;;8.90;99.90;;;;;;5064359;28;20456;-64
2021/12/16 14:36:13;;;;;;;15.87;12.33;;;8.70;99.90;;;;;;5063553;28;20430;-64
2021/12/16 14:39:04;;;;;;;17.13;12.93;;;8.60;99.90;;;;;;5063953;28;20535;-64
2021/12/16 14:47:28;;;;;;;19.00;13.57;;;8.40;99.90;;;;;;5021084;28;20438;-63
2021/12/16 14:49:56;;;;;;;18.93;13.60;;;8.40;99.90;;;;;;5063810;28;20548;-63
2021/12/16 14:52:26;;;;;;;16.20;12.07;;;8.30;99.90;;;;;;5066809;28;20514;-64
2021/12/16 14:54:56;;;;;;;17.83;12.87;;;8.20;99.90;;;;;;5067210;28;20448;-65
2021/12/16 14:57:26;;;;;;;17.30;13.37;;;8.10;99.90;;;;;;5066935;28;20513;-66
2021/12/16 14:59:54;;;;;;;15.80;11.70;;;8.00;99.90;;;;;;5067908;28;20451;-65
2021/12/16 15:02:26;;;;;;;17.80;14.00;;;8.00;99.90;;;;;;5068214;28;20471;-67
2021/12/16 15:04:54;;;;;;;20.53;13.80;;;7.90;99.90;;;;;;5067418;28;20455;-67
2021/12/16 15:07:24;;;;;;;19.73;15.27;;;7.70;99.90;;;;;;5068972;28;20820;-67
2021/12/16 15:09:54;;;;;;;19.37;13.87;;;7.60;99.90;;;;;;5068930;28;20470;-68
2021/12/16 15:12:30;;;;;;;24.43;14.23;;;7.40;99.90;;;;;;5069827;28;20810;-67
2021/12/16 15:15:15;;;;;;;15.90;11.23;;;7.30;99.90;;;;;;5069863;28;20447;-66
2021/12/16 15:32:36;;;;;;;21.00;13.57;;;6.00;99.90;;;;;;5054957;28;20949;-67
2021/12/16 15:40:38;;;;;;;18.53;13.93;;;5.80;99.90;;;;;;5053365;28;20428;-67
2021/12/16 15:43:08;;;;;;;22.17;14.17;;;5.80;99.90;;;;;;5069395;28;20455;-66
2021/12/16 15:45:38;;;;;;;22.03;15.13;;;5.80;99.90;;;;;;5070283;28;20451;-67
2021/12/16 15:48:09;;;;;;;22.93;15.13;;;5.70;99.90;;;;;;5068692;28;20440;-67
2021/12/16 15:50:41;;;;;;;17.83;13.57;;;5.70;99.90;;;;;;5068882;28;20439;-67